PWSweather.com
Personal Weather Stations
Station Observations
KKSTOPEK1
South Central , Topeka, KS 66611

South Central Topeka, KS 66611

Lat: 39.03, Lon: -95.71

Elevation: 945

Station Type: Davis Vantage Vue

http://tallgrasspixels.net/wx/wx.html

High Low Average
Temperature 34.5°F1.4°F 20.9°F-6.2°F 26.5°F-3.1°F
Dew Point 23.7°F-4.6°F 18.4°F-7.6°F 20.8°F-6.2°F
Winds 4.1 mph WNW6.6 mph WNW Calm Calm 0.6 mph 1.0 mph
Wind Gusts 7.0 mph11.3 mph -- 1.1 mph1.8 mph
Humidity 91% 62% 79%
Pressure 30.56 in1034.90 in 30.43 in1030.50 in -
Precipitation 0.09 in2.30 in - -
Hour Temp Dew Point Humidity Winds Wind Gusts Pressure Precip Precip Rate Daily Precip Total
12:00 AM 22.4°F-5.3°C 18.8°F-7.3°C 86% Calm Calm -- 30.45 in1031.2 mb 0.00 in0.0 mm 0.00 in/hr0.0 mm/hr 0.00 in0.0 mm
12:10 AM 22.2°F-5.4°C 18.9°F-7.3°C 87% Calm Calm -- 30.46 in1031.5 mb 0.00 in0.0 mm 0.00 in/hr0.0 mm/hr 0.00 in0.0 mm
12:20 AM 22.2°F-5.4°C 18.9°F-7.3°C 87% Calm Calm -- 30.45 in1031.2 mb 0.00 in0.0 mm 0.00 in/hr0.0 mm/hr 0.00 in0.0 mm
12:30 AM 22.3°F-5.4°C 19.0°F-7.2°C 87% Calm Calm -- 30.45 in1031.2 mb 0.00 in0.0 mm 0.00 in/hr0.0 mm/hr 0.00 in0.0 mm
12:40 AM 22.3°F-5.4°C 19.0°F-7.2°C 87% Calm Calm -- 30.44 in1030.8 mb 0.00 in0.0 mm 0.00 in/hr0.0 mm/hr 0.00 in0.0 mm
12:50 AM 22.5°F-5.3°C 19.2°F-7.1°C 87% Calm Calm -- 30.43 in1030.5 mb 0.00 in0.0 mm 0.00 in/hr0.0 mm/hr 0.00 in0.0 mm
01:00 AM 22.5°F-5.3°C 19.2°F-7.1°C 87% Calm Calm 1.0 mph1.6 kmh 30.44 in1030.8 mb 0.00 in0.0 mm 0.00 in/hr0.0 mm/hr 0.00 in0.0 mm
01:10 AM 22.5°F-5.3°C 19.2°F-7.1°C 87% Calm Calm -- 30.45 in1031.2 mb 0.00 in0.0 mm 0.00 in/hr0.0 mm/hr 0.00 in0.0 mm
01:20 AM 22.6°F-5.2°C 19.3°F-7.1°C 87% Calm Calm -- 30.44 in1030.8 mb 0.00 in0.0 mm 0.00 in/hr0.0 mm/hr 0.00 in0.0 mm
01:30 AM 22.6°F-5.2°C 19.3°F-7.1°C 87% Calm Calm -- 30.45 in1031.2 mb 0.00 in0.0 mm 0.00 in/hr0.0 mm/hr 0.00 in0.0 mm
01:40 AM 22.6°F-5.2°C 19.3°F-7.1°C 87% Calm Calm -- 30.44 in1030.8 mb 0.00 in0.0 mm 0.00 in/hr0.0 mm/hr 0.00 in0.0 mm
01:50 AM 22.6°F-5.2°C 19.3°F-7.1°C 87% Calm Calm -- 30.45 in1031.2 mb 0.00 in0.0 mm 0.00 in/hr0.0 mm/hr 0.00 in0.0 mm
02:00 AM 22.6°F-5.2°C 19.3°F-7.1°C 87% Calm Calm -- 30.44 in1030.8 mb 0.00 in0.0 mm 0.00 in/hr0.0 mm/hr 0.00 in0.0 mm
02:10 AM 22.6°F-5.2°C 19.3°F-7.1°C 87% Calm Calm -- 30.45 in1031.2 mb 0.00 in0.0 mm 0.00 in/hr0.0 mm/hr 0.00 in0.0 mm
02:20 AM 22.6°F-5.2°C 19.3°F-7.1°C 87% Calm Calm 1.0 mph1.6 kmh 30.45 in1031.2 mb 0.00 in0.0 mm 0.00 in/hr0.0 mm/hr 0.00 in0.0 mm
02:30 AM 22.7°F-5.2°C 19.4°F-7.0°C 87% Calm Calm -- 30.45 in1031.2 mb 0.00 in0.0 mm 0.00 in/hr0.0 mm/hr 0.00 in0.0 mm
02:40 AM 22.6°F-5.2°C 19.3°F-7.1°C 87% Calm Calm -- 30.45 in1031.2 mb 0.00 in0.0 mm 0.00 in/hr0.0 mm/hr 0.00 in0.0 mm
02:50 AM 22.5°F-5.3°C 19.2°F-7.1°C 87% Calm Calm -- 30.44 in1030.8 mb 0.00 in0.0 mm 0.00 in/hr0.0 mm/hr 0.00 in0.0 mm
03:00 AM 22.4°F-5.3°C 19.1°F-7.2°C 87% Calm Calm -- 30.44 in1030.8 mb 0.00 in0.0 mm 0.00 in/hr0.0 mm/hr 0.00 in0.0 mm
03:10 AM 22.4°F-5.3°C 19.4°F-7.0°C 88% Calm Calm -- 30.43 in1030.5 mb 0.00 in0.0 mm 0.00 in/hr0.0 mm/hr 0.00 in0.0 mm
03:20 AM 22.3°F-5.4°C 19.3°F-7.1°C 88% Calm Calm -- 30.44 in1030.8 mb 0.00 in0.0 mm 0.00 in/hr0.0 mm/hr 0.00 in0.0 mm
03:30 AM 22.4°F-5.3°C 19.4°F-7.0°C 88% Calm Calm -- 30.43 in1030.5 mb 0.00 in0.0 mm 0.00 in/hr0.0 mm/hr 0.00 in0.0 mm
03:40 AM 22.5°F-5.3°C 19.5°F-6.9°C 88% Calm Calm -- 30.43 in1030.5 mb 0.00 in0.0 mm 0.00 in/hr0.0 mm/hr 0.00 in0.0 mm
03:50 AM 22.5°F-5.3°C 19.5°F-6.9°C 88% Calm Calm -- 30.43 in1030.5 mb 0.00 in0.0 mm 0.00 in/hr0.0 mm/hr 0.00 in0.0 mm
04:00 AM 22.5°F-5.3°C 19.5°F-6.9°C 88% Calm Calm -- 30.43 in1030.5 mb 0.00 in0.0 mm 0.00 in/hr0.0 mm/hr 0.00 in0.0 mm
04:10 AM 22.5°F-5.3°C 19.5°F-6.9°C 88% Calm Calm -- 30.43 in1030.5 mb 0.00 in0.0 mm 0.00 in/hr0.0 mm/hr 0.00 in0.0 mm
04:20 AM 22.5°F-5.3°C 19.5°F-6.9°C 88% Calm Calm -- 30.44 in1030.8 mb 0.00 in0.0 mm 0.00 in/hr0.0 mm/hr 0.00 in0.0 mm
04:30 AM 22.4°F-5.3°C 19.4°F-7.0°C 88% Calm Calm -- 30.43 in1030.5 mb 0.00 in0.0 mm 0.00 in/hr0.0 mm/hr 0.00 in0.0 mm
04:40 AM 22.3°F-5.4°C 19.3°F-7.1°C 88% Calm Calm -- 30.43 in1030.5 mb 0.00 in0.0 mm 0.00 in/hr0.0 mm/hr 0.00 in0.0 mm
04:50 AM 22.2°F-5.4°C 19.5°F-6.9°C 89% Calm Calm -- 30.44 in1030.8 mb 0.00 in0.0 mm 0.00 in/hr0.0 mm/hr 0.00 in0.0 mm
05:00 AM 22.2°F-5.4°C 19.5°F-6.9°C 89% Calm Calm -- 30.44 in1030.8 mb 0.00 in0.0 mm 0.00 in/hr0.0 mm/hr 0.00 in0.0 mm
05:10 AM 22.2°F-5.4°C 19.5°F-6.9°C 89% Calm Calm -- 30.44 in1030.8 mb 0.00 in0.0 mm 0.00 in/hr0.0 mm/hr 0.00 in0.0 mm
05:20 AM 22.3°F-5.4°C 19.6°F-6.9°C 89% Calm Calm -- 30.44 in1030.8 mb 0.00 in0.0 mm 0.00 in/hr0.0 mm/hr 0.00 in0.0 mm
05:30 AM 22.3°F-5.4°C 19.6°F-6.9°C 89% Calm Calm -- 30.44 in1030.8 mb 0.00 in0.0 mm 0.00 in/hr0.0 mm/hr 0.00 in0.0 mm
05:40 AM 22.2°F-5.4°C 19.5°F-6.9°C 89% Calm Calm -- 30.44 in1030.8 mb 0.00 in0.0 mm 0.00 in/hr0.0 mm/hr 0.00 in0.0 mm
05:50 AM 22.2°F-5.4°C 19.4°F-7.0°C 89% Calm Calm -- 30.45 in1031.2 mb 0.00 in0.0 mm 0.00 in/hr0.0 mm/hr 0.00 in0.0 mm
06:00 AM 22.0°F-5.6°C 19.3°F-7.1°C 89% Calm Calm -- 30.45 in1031.2 mb 0.00 in0.0 mm 0.00 in/hr0.0 mm/hr 0.00 in0.0 mm
06:10 AM 22.0°F-5.6°C 19.2°F-7.1°C 89% Calm Calm -- 30.45 in1031.2 mb 0.00 in0.0 mm 0.00 in/hr0.0 mm/hr 0.00 in0.0 mm
06:20 AM 22.0°F-5.6°C 19.3°F-7.1°C 89% Calm Calm -- 30.45 in1031.2 mb 0.00 in0.0 mm 0.00 in/hr0.0 mm/hr 0.00 in0.0 mm
06:30 AM 22.0°F-5.6°C 19.5°F-6.9°C 90% Calm Calm -- 30.45 in1031.2 mb 0.00 in0.0 mm 0.00 in/hr0.0 mm/hr 0.00 in0.0 mm
06:40 AM 22.0°F-5.6°C 19.3°F-7.1°C 89% Calm Calm -- 30.44 in1030.8 mb 0.00 in0.0 mm 0.00 in/hr0.0 mm/hr 0.00 in0.0 mm
06:50 AM 21.7°F-5.7°C 19.0°F-7.2°C 89% Calm Calm -- 30.45 in1031.2 mb 0.00 in0.0 mm 0.00 in/hr0.0 mm/hr 0.00 in0.0 mm
07:00 AM 21.3°F-5.9°C 18.6°F-7.4°C 89% Calm Calm -- 30.45 in1031.2 mb 0.00 in0.0 mm 0.00 in/hr0.0 mm/hr 0.00 in0.0 mm
07:10 AM 20.9°F-6.2°C 18.4°F-7.6°C 90% Calm Calm -- 30.45 in1031.2 mb 0.00 in0.0 mm 0.00 in/hr0.0 mm/hr 0.00 in0.0 mm
07:20 AM 21.0°F-6.1°C 18.8°F-7.3°C 91% Calm Calm -- 30.45 in1031.2 mb 0.00 in0.0 mm 0.00 in/hr0.0 mm/hr 0.00 in0.0 mm
07:30 AM 21.4°F-5.9°C 19.2°F-7.1°C 91% Calm Calm -- 30.45 in1031.2 mb 0.00 in0.0 mm 0.00 in/hr0.0 mm/hr 0.00 in0.0 mm
07:40 AM 22.0°F-5.6°C 19.8°F-6.8°C 91% Calm Calm -- 30.46 in1031.5 mb 0.00 in0.0 mm 0.00 in/hr0.0 mm/hr 0.00 in0.0 mm
07:50 AM 22.5°F-5.3°C 20.0°F-6.7°C 90% Calm Calm -- 30.46 in1031.5 mb 0.00 in0.0 mm 0.00 in/hr0.0 mm/hr 0.00 in0.0 mm
08:00 AM 23.0°F-5.0°C 20.0°F-6.7°C 88% Calm Calm -- 30.46 in1031.5 mb 0.00 in0.0 mm 0.00 in/hr0.0 mm/hr 0.00 in0.0 mm
08:10 AM 23.2°F-4.9°C 19.9°F-6.7°C 87% Calm Calm -- 30.46 in1031.5 mb 0.00 in0.0 mm 0.00 in/hr0.0 mm/hr 0.00 in0.0 mm
08:20 AM 23.4°F-4.8°C 20.1°F-6.6°C 87% Calm Calm -- 30.46 in1031.5 mb 0.00 in0.0 mm 0.00 in/hr0.0 mm/hr 0.00 in0.0 mm
08:30 AM 24.0°F-4.4°C 20.1°F-6.6°C 85% 0.2 mph WSW0.3 kmh WSW 1.0 mph1.6 kmh 30.47 in1031.8 mb 0.00 in0.0 mm 0.00 in/hr0.0 mm/hr 0.00 in0.0 mm
08:40 AM 24.2°F-4.3°C 20.3°F-6.5°C 85% 0.5 mph WNW0.8 kmh WNW 1.0 mph1.6 kmh 30.48 in1032.2 mb 0.00 in0.0 mm 0.00 in/hr0.0 mm/hr 0.00 in0.0 mm
08:50 AM 24.7°F-4.1°C 20.6°F-6.3°C 84% Calm Calm -- 30.48 in1032.2 mb 0.00 in0.0 mm 0.00 in/hr0.0 mm/hr 0.00 in0.0 mm
09:00 AM 25.1°F-3.8°C 20.4°F-6.4°C 82% 0.8 mph WSW1.3 kmh WSW 1.0 mph1.6 kmh 30.49 in1032.5 mb 0.00 in0.0 mm 0.00 in/hr0.0 mm/hr 0.00 in0.0 mm
09:10 AM 25.5°F-3.6°C 20.5°F-6.4°C 81% 0.9 mph N1.4 kmh N 1.0 mph1.6 kmh 30.49 in1032.5 mb 0.00 in0.0 mm 0.00 in/hr0.0 mm/hr 0.00 in0.0 mm
09:20 AM 26.2°F-3.2°C 20.8°F-6.2°C 80% Calm Calm 1.0 mph1.6 kmh 30.49 in1032.5 mb 0.00 in0.0 mm 0.00 in/hr0.0 mm/hr 0.00 in0.0 mm
09:30 AM 26.6°F-3.0°C 20.9°F-6.2°C 79% 0.1 mph NW0.2 kmh NW 2.0 mph3.2 kmh 30.49 in1032.5 mb 0.00 in0.0 mm 0.00 in/hr0.0 mm/hr 0.00 in0.0 mm
09:40 AM 27.0°F-2.8°C 21.1°F-6.1°C 78% 1.1 mph WSW1.8 kmh WSW 3.0 mph4.8 kmh 30.49 in1032.5 mb 0.00 in0.0 mm 0.00 in/hr0.0 mm/hr 0.00 in0.0 mm
09:50 AM 27.4°F-2.6°C 20.8°F-6.2°C 76% 2.1 mph W3.4 kmh W 5.0 mph8.0 kmh 30.48 in1032.2 mb 0.00 in0.0 mm 0.00 in/hr0.0 mm/hr 0.00 in0.0 mm
10:00 AM 27.4°F-2.6°C 20.9°F-6.2°C 76% 1.6 mph W2.6 kmh W 2.0 mph3.2 kmh 30.48 in1032.2 mb 0.00 in0.0 mm 0.00 in/hr0.0 mm/hr 0.00 in0.0 mm
10:10 AM 28.1°F-2.2°C 20.9°F-6.2°C 74% 1.2 mph W1.9 kmh W 2.0 mph3.2 kmh 30.48 in1032.2 mb 0.00 in0.0 mm 0.00 in/hr0.0 mm/hr 0.00 in0.0 mm
10:20 AM 28.2°F-2.1°C 20.7°F-6.3°C 73% 1.6 mph WNW2.6 kmh WNW 2.0 mph3.2 kmh 30.48 in1032.2 mb 0.00 in0.0 mm 0.00 in/hr0.0 mm/hr 0.00 in0.0 mm
10:30 AM 28.3°F-2.1°C 20.5°F-6.4°C 72% 2.6 mph W4.2 kmh W 5.0 mph8.0 kmh 30.49 in1032.5 mb 0.00 in0.0 mm 0.00 in/hr0.0 mm/hr 0.00 in0.0 mm
10:40 AM 28.5°F-1.9°C 20.6°F-6.3°C 72% 2.1 mph WSW3.4 kmh WSW 4.0 mph6.4 kmh 30.49 in1032.5 mb 0.00 in0.0 mm 0.00 in/hr0.0 mm/hr 0.00 in0.0 mm
10:50 AM 28.8°F-1.8°C 20.6°F-6.3°C 71% 1.5 mph WSW2.4 kmh WSW 6.0 mph9.7 kmh 30.50 in1032.8 mb 0.00 in0.0 mm 0.00 in/hr0.0 mm/hr 0.00 in0.0 mm
11:00 AM 28.8°F-1.8°C 20.2°F-6.6°C 70% 1.8 mph SW2.9 kmh SW 4.0 mph6.4 kmh 30.50 in1032.8 mb 0.00 in0.0 mm 0.00 in/hr0.0 mm/hr 0.00 in0.0 mm
11:10 AM 30.1°F-1.1°C 21.1°F-6.1°C 69% 1.4 mph NE2.3 kmh NE 2.0 mph3.2 kmh 30.50 in1032.8 mb 0.00 in0.0 mm 0.00 in/hr0.0 mm/hr 0.00 in0.0 mm
11:20 AM 30.2°F-1.0°C 21.6°F-5.8°C 70% 1.5 mph NNE2.4 kmh NNE 2.0 mph3.2 kmh 30.49 in1032.5 mb 0.00 in0.0 mm 0.00 in/hr0.0 mm/hr 0.00 in0.0 mm
11:30 AM 30.6°F-0.8°C 21.3°F-5.9°C 68% 0.6 mph N1.0 kmh N 2.0 mph3.2 kmh 30.50 in1032.8 mb 0.00 in0.0 mm 0.00 in/hr0.0 mm/hr 0.00 in0.0 mm
11:40 AM 30.9°F-0.6°C 21.6°F-5.8°C 68% 0.8 mph NW1.3 kmh NW 2.0 mph3.2 kmh 30.49 in1032.5 mb 0.00 in0.0 mm 0.00 in/hr0.0 mm/hr 0.00 in0.0 mm
11:50 AM 31.0°F-0.6°C 21.7°F-5.7°C 68% 0.7 mph N1.1 kmh N 1.0 mph1.6 kmh 30.49 in1032.5 mb 0.00 in0.0 mm 0.00 in/hr0.0 mm/hr 0.00 in0.0 mm
12:00 PM 31.2°F-0.4°C 21.5°F-5.8°C 67% 0.3 mph WSW0.5 kmh WSW 1.0 mph1.6 kmh 30.49 in1032.5 mb 0.00 in0.0 mm 0.00 in/hr0.0 mm/hr 0.00 in0.0 mm
12:10 PM 31.1°F-0.5°C 21.0°F-6.1°C 66% 1.3 mph WNW2.1 kmh WNW 2.0 mph3.2 kmh 30.49 in1032.5 mb 0.00 in0.0 mm 0.00 in/hr0.0 mm/hr 0.00 in0.0 mm
12:20 PM 30.9°F-0.6°C 21.2°F-6.0°C 67% 2.5 mph SW4.0 kmh SW 4.0 mph6.4 kmh 30.50 in1032.8 mb 0.01 in0.3 mm 0.06 in/hr1.5 mm/hr 0.01 in0.3 mm
12:30 PM 31.3°F-0.4°C 21.9°F-5.6°C 68% 3.0 mph N4.8 kmh N 4.0 mph6.4 kmh 30.49 in1032.5 mb 0.02 in0.5 mm 0.12 in/hr3.0 mm/hr 0.03 in0.8 mm
12:40 PM 31.4°F-0.3°C 22.4°F-5.3°C 69% 3.2 mph NNW5.1 kmh NNW 7.0 mph11.3 kmh 30.48 in1032.2 mb 0.01 in0.3 mm 0.06 in/hr1.5 mm/hr 0.04 in1.0 mm
12:50 PM 31.1°F-0.5°C 21.7°F-5.7°C 68% 1.3 mph NNE2.1 kmh NNE 2.0 mph3.2 kmh 30.48 in1032.2 mb 0.00 in0.0 mm 0.00 in/hr0.0 mm/hr 0.04 in1.0 mm
01:00 PM 31.3°F-0.4°C 22.6°F-5.2°C 70% 1.6 mph WSW2.6 kmh WSW 4.0 mph6.4 kmh 30.47 in1031.8 mb 0.01 in0.3 mm 0.01 in/hr0.3 mm/hr 0.05 in1.3 mm
01:10 PM 32.1°F0.1°C 23.5°F-4.7°C 70% 1.5 mph NW2.4 kmh NW 3.0 mph4.8 kmh 30.46 in1031.5 mb 0.01 in0.3 mm 0.06 in/hr1.5 mm/hr 0.06 in1.5 mm
01:20 PM 31.3°F-0.4°C 22.6°F-5.2°C 70% 0.8 mph WSW1.3 kmh WSW 2.0 mph3.2 kmh 30.46 in1031.5 mb 0.00 in0.0 mm 0.00 in/hr0.0 mm/hr 0.06 in1.5 mm
01:30 PM 32.4°F0.2°C 23.7°F-4.6°C 70% 2.5 mph W4.0 kmh W 4.0 mph6.4 kmh 30.46 in1031.5 mb 0.01 in0.3 mm 0.06 in/hr1.5 mm/hr 0.07 in1.8 mm
01:40 PM 32.0°F0.0°C 22.7°F-5.2°C 68% 2.3 mph SW3.7 kmh SW 5.0 mph8.0 kmh 30.47 in1031.8 mb 0.00 in0.0 mm 0.00 in/hr0.0 mm/hr 0.07 in1.8 mm
01:50 PM 31.7°F-0.2°C 22.3°F-5.4°C 68% 3.4 mph SW5.5 kmh SW 4.0 mph6.4 kmh 30.46 in1031.5 mb 0.00 in0.0 mm 0.00 in/hr0.0 mm/hr 0.08 in2.0 mm
02:00 PM 31.9°F-0.1°C 22.8°F-5.1°C 69% 2.1 mph NNE3.4 kmh NNE 4.0 mph6.4 kmh 30.46 in1031.5 mb 0.01 in0.3 mm 0.01 in/hr0.3 mm/hr 0.08 in2.0 mm
02:10 PM 31.8°F-0.1°C 22.8°F-5.1°C 69% 1.4 mph WSW2.3 kmh WSW 3.0 mph4.8 kmh 30.46 in1031.5 mb 0.00 in0.0 mm 0.00 in/hr0.0 mm/hr 0.08 in2.0 mm
02:20 PM 32.4°F0.2°C 23.1°F-4.9°C 68% 0.6 mph NE1.0 kmh NE 2.0 mph3.2 kmh 30.46 in1031.5 mb 0.00 in0.0 mm 0.00 in/hr0.0 mm/hr 0.08 in2.0 mm
02:30 PM 32.5°F0.3°C 23.5°F-4.7°C 69% 0.9 mph N1.4 kmh N 2.0 mph3.2 kmh 30.46 in1031.5 mb 0.01 in0.3 mm 0.06 in/hr1.5 mm/hr 0.09 in2.3 mm
02:40 PM 32.5°F0.3°C 22.8°F-5.1°C 67% 1.8 mph W2.9 kmh W 4.0 mph6.4 kmh 30.46 in1031.5 mb 0.00 in0.0 mm 0.00 in/hr0.0 mm/hr 0.09 in2.3 mm
02:50 PM 32.5°F0.3°C 23.5°F-4.7°C 69% 1.5 mph WSW2.4 kmh WSW 2.0 mph3.2 kmh 30.46 in1031.5 mb 0.00 in0.0 mm 0.00 in/hr0.0 mm/hr 0.09 in2.3 mm
03:00 PM 32.7°F0.4°C 23.7°F-4.6°C 69% 4.1 mph WNW6.6 kmh WNW 6.0 mph9.7 kmh 30.46 in1031.5 mb 0.00 in0.0 mm 0.00 in/hr0.0 mm/hr 0.09 in2.3 mm
03:10 PM 32.6°F0.3°C 23.5°F-4.7°C 69% 1.7 mph WNW2.7 kmh WNW 4.0 mph6.4 kmh 30.46 in1031.5 mb 0.00 in0.0 mm 0.00 in/hr0.0 mm/hr 0.09 in2.3 mm
03:20 PM 32.7°F0.4°C 23.3°F-4.8°C 68% 1.2 mph WSW1.9 kmh WSW 2.0 mph3.2 kmh 30.46 in1031.5 mb 0.00 in0.0 mm 0.00 in/hr0.0 mm/hr 0.09 in2.3 mm
03:30 PM 32.3°F0.2°C 22.9°F-5.1°C 68% 0.9 mph WSW1.4 kmh WSW 2.0 mph3.2 kmh 30.46 in1031.5 mb 0.00 in0.0 mm 0.00 in/hr0.0 mm/hr 0.09 in2.3 mm
03:40 PM 32.3°F0.2°C 22.6°F-5.2°C 67% 1.8 mph NNE2.9 kmh NNE 3.0 mph4.8 kmh 30.46 in1031.5 mb 0.00 in0.0 mm 0.00 in/hr0.0 mm/hr 0.09 in2.3 mm
03:50 PM 32.4°F0.2°C 22.3°F-5.4°C 66% 1.0 mph WNW1.6 kmh WNW 2.0 mph3.2 kmh 30.46 in1031.5 mb 0.00 in0.0 mm 0.00 in/hr0.0 mm/hr 0.09 in2.3 mm
04:00 PM 32.9°F0.5°C 22.8°F-5.1°C 66% 1.0 mph N1.6 kmh N 1.0 mph1.6 kmh 30.46 in1031.5 mb 0.00 in0.0 mm 0.00 in/hr0.0 mm/hr 0.09 in2.3 mm
04:10 PM 33.3°F0.7°C 23.6°F-4.7°C 67% 2.0 mph WSW3.2 kmh WSW 3.0 mph4.8 kmh 30.46 in1031.5 mb 0.00 in0.0 mm 0.00 in/hr0.0 mm/hr 0.09 in2.3 mm
04:20 PM 33.9°F1.1°C 23.0°F-5.0°C 64% 0.7 mph WSW1.1 kmh WSW 2.0 mph3.2 kmh 30.46 in1031.5 mb 0.00 in0.0 mm 0.00 in/hr0.0 mm/hr 0.09 in2.3 mm
04:30 PM 33.5°F0.8°C 22.6°F-5.2°C 64% 1.2 mph NNE1.9 kmh NNE 1.0 mph1.6 kmh 30.46 in1031.5 mb 0.00 in0.0 mm 0.00 in/hr0.0 mm/hr 0.09 in2.3 mm
04:40 PM 33.7°F0.9°C 22.8°F-5.1°C 64% 1.4 mph N2.3 kmh N 3.0 mph4.8 kmh 30.46 in1031.5 mb 0.00 in0.0 mm 0.00 in/hr0.0 mm/hr 0.09 in2.3 mm
04:50 PM 34.2°F1.2°C 23.7°F-4.6°C 65% 1.3 mph NNE2.1 kmh NNE 3.0 mph4.8 kmh 30.46 in1031.5 mb 0.00 in0.0 mm 0.00 in/hr0.0 mm/hr 0.09 in2.3 mm
05:00 PM 34.5°F1.4°C 22.8°F-5.1°C 62% 2.1 mph W3.4 kmh W 4.0 mph6.4 kmh 30.47 in1031.8 mb 0.00 in0.0 mm 0.00 in/hr0.0 mm/hr 0.09 in2.3 mm
05:10 PM 34.2°F1.2°C 22.9°F-5.1°C 63% 0.6 mph NW1.0 kmh NW 2.0 mph3.2 kmh 30.46 in1031.5 mb 0.00 in0.0 mm 0.00 in/hr0.0 mm/hr 0.09 in2.3 mm
05:20 PM 34.0°F1.1°C 23.1°F-4.9°C 64% 0.4 mph NW0.6 kmh NW 3.0 mph4.8 kmh 30.47 in1031.8 mb 0.00 in0.0 mm 0.00 in/hr0.0 mm/hr 0.09 in2.3 mm
05:30 PM 33.9°F1.1°C 22.6°F-5.2°C 63% 1.4 mph WSW2.3 kmh WSW 3.0 mph4.8 kmh 30.47 in1031.8 mb 0.00 in0.0 mm 0.00 in/hr0.0 mm/hr 0.09 in2.3 mm
05:40 PM 34.0°F1.1°C 22.4°F-5.3°C 62% 0.5 mph WNW0.8 kmh WNW 1.0 mph1.6 kmh 30.47 in1031.8 mb 0.00 in0.0 mm 0.00 in/hr0.0 mm/hr 0.09 in2.3 mm
05:50 PM 33.6°F0.9°C 22.7°F-5.2°C 64% 0.8 mph WSW1.3 kmh WSW 3.0 mph4.8 kmh 30.47 in1031.8 mb 0.00 in0.0 mm 0.00 in/hr0.0 mm/hr 0.09 in2.3 mm
06:00 PM 33.0°F0.6°C 22.5°F-5.3°C 65% 0.7 mph NNW1.1 kmh NNW 2.0 mph3.2 kmh 30.47 in1031.8 mb 0.00 in0.0 mm 0.00 in/hr0.0 mm/hr 0.09 in2.3 mm
06:10 PM 32.4°F0.2°C 22.3°F-5.4°C 66% 0.7 mph N1.1 kmh N 2.0 mph3.2 kmh 30.47 in1031.8 mb 0.00 in0.0 mm 0.00 in/hr0.0 mm/hr 0.09 in2.3 mm
06:20 PM 31.9°F-0.1°C 22.2°F-5.4°C 67% Calm Calm -- 30.48 in1032.2 mb 0.00 in0.0 mm 0.00 in/hr0.0 mm/hr 0.09 in2.3 mm
06:30 PM 31.1°F-0.5°C 22.1°F-5.5°C 69% Calm Calm -- 30.48 in1032.2 mb 0.00 in0.0 mm 0.00 in/hr0.0 mm/hr 0.09 in2.3 mm
06:40 PM 30.3°F-0.9°C 21.7°F-5.7°C 70% Calm Calm -- 30.48 in1032.2 mb 0.00 in0.0 mm 0.00 in/hr0.0 mm/hr 0.09 in2.3 mm
06:50 PM 29.3°F-1.5°C 21.4°F-5.9°C 72% Calm Calm -- 30.49 in1032.5 mb 0.00 in0.0 mm 0.00 in/hr0.0 mm/hr 0.09 in2.3 mm
07:00 PM 29.3°F-1.5°C 21.4°F-5.9°C 72% Calm Calm -- 30.49 in1032.5 mb 0.00 in0.0 mm 0.00 in/hr0.0 mm/hr 0.09 in2.3 mm
07:10 PM 28.5°F-1.9°C 21.2°F-6.0°C 74% Calm Calm -- 30.49 in1032.5 mb 0.00 in0.0 mm 0.00 in/hr0.0 mm/hr 0.09 in2.3 mm
07:20 PM 28.0°F-2.2°C 21.8°F-5.7°C 77% Calm Calm -- 30.49 in1032.5 mb 0.00 in0.0 mm 0.00 in/hr0.0 mm/hr 0.09 in2.3 mm
07:30 PM 27.7°F-2.4°C 21.4°F-5.9°C 77% Calm Calm -- 30.50 in1032.8 mb 0.00 in0.0 mm 0.00 in/hr0.0 mm/hr 0.09 in2.3 mm
07:40 PM 27.4°F-2.6°C 21.7°F-5.7°C 79% Calm Calm -- 30.51 in1033.2 mb 0.00 in0.0 mm 0.00 in/hr0.0 mm/hr 0.09 in2.3 mm
07:50 PM 26.9°F-2.8°C 21.6°F-5.8°C 80% Calm Calm -- 30.51 in1033.2 mb 0.00 in0.0 mm 0.00 in/hr0.0 mm/hr 0.09 in2.3 mm
08:00 PM 26.5°F-3.1°C 21.5°F-5.8°C 81% Calm Calm -- 30.50 in1032.8 mb 0.00 in0.0 mm 0.00 in/hr0.0 mm/hr 0.09 in2.3 mm
08:10 PM 25.9°F-3.4°C 20.6°F-6.3°C 80% Calm Calm -- 30.51 in1033.2 mb 0.00 in0.0 mm 0.00 in/hr0.0 mm/hr 0.09 in2.3 mm
08:20 PM 25.8°F-3.4°C 21.3°F-5.9°C 83% Calm Calm -- 30.51 in1033.2 mb 0.00 in0.0 mm 0.00 in/hr0.0 mm/hr 0.09 in2.3 mm
08:30 PM 25.6°F-3.6°C 21.2°F-6.0°C 83% Calm Calm -- 30.52 in1033.5 mb 0.00 in0.0 mm 0.00 in/hr0.0 mm/hr 0.09 in2.3 mm
08:40 PM 25.3°F-3.7°C 21.1°F-6.1°C 84% Calm Calm -- 30.51 in1033.2 mb 0.00 in0.0 mm 0.00 in/hr0.0 mm/hr 0.09 in2.3 mm
08:50 PM 24.9°F-3.9°C 20.8°F-6.2°C 84% Calm Calm -- 30.51 in1033.2 mb 0.00 in0.0 mm 0.00 in/hr0.0 mm/hr 0.09 in2.3 mm
09:00 PM 24.1°F-4.4°C 19.9°F-6.7°C 84% Calm Calm -- 30.52 in1033.5 mb 0.00 in0.0 mm 0.00 in/hr0.0 mm/hr 0.09 in2.3 mm
09:10 PM 24.0°F-4.4°C 20.4°F-6.4°C 86% Calm Calm -- 30.52 in1033.5 mb 0.00 in0.0 mm 0.00 in/hr0.0 mm/hr 0.09 in2.3 mm
09:20 PM 24.1°F-4.4°C 20.2°F-6.6°C 85% Calm Calm -- 30.52 in1033.5 mb 0.00 in0.0 mm 0.00 in/hr0.0 mm/hr 0.09 in2.3 mm
09:30 PM 23.7°F-4.6°C 19.9°F-6.7°C 85% Calm Calm -- 30.53 in1033.9 mb 0.00 in0.0 mm 0.00 in/hr0.0 mm/hr 0.09 in2.3 mm
09:40 PM 23.4°F-4.8°C 19.8°F-6.8°C 86% Calm Calm -- 30.53 in1033.9 mb 0.00 in0.0 mm 0.00 in/hr0.0 mm/hr 0.09 in2.3 mm
09:50 PM 23.4°F-4.8°C 20.1°F-6.6°C 87% Calm Calm -- 30.53 in1033.9 mb 0.00 in0.0 mm 0.00 in/hr0.0 mm/hr 0.09 in2.3 mm
10:00 PM 23.2°F-4.9°C 20.1°F-6.6°C 88% Calm Calm -- 30.54 in1034.2 mb 0.00 in0.0 mm 0.00 in/hr0.0 mm/hr 0.09 in2.3 mm
10:10 PM 23.0°F-5.0°C 20.0°F-6.7°C 88% Calm Calm -- 30.55 in1034.5 mb 0.00 in0.0 mm 0.00 in/hr0.0 mm/hr 0.09 in2.3 mm
10:20 PM 23.2°F-4.9°C 19.9°F-6.7°C 87% Calm Calm -- 30.55 in1034.5 mb 0.00 in0.0 mm 0.00 in/hr0.0 mm/hr 0.09 in2.3 mm
10:30 PM 23.0°F-5.0°C 20.0°F-6.7°C 88% Calm Calm -- 30.55 in1034.5 mb 0.00 in0.0 mm 0.00 in/hr0.0 mm/hr 0.09 in2.3 mm
10:40 PM 22.9°F-5.1°C 19.8°F-6.8°C 88% Calm Calm -- 30.54 in1034.2 mb 0.00 in0.0 mm 0.00 in/hr0.0 mm/hr 0.09 in2.3 mm
10:50 PM 22.8°F-5.1°C 20.0°F-6.7°C 89% Calm Calm -- 30.55 in1034.5 mb 0.00 in0.0 mm 0.00 in/hr0.0 mm/hr 0.09 in2.3 mm
11:00 PM 23.1°F-4.9°C 20.3°F-6.5°C 89% Calm Calm -- 30.55 in1034.5 mb 0.00 in0.0 mm 0.00 in/hr0.0 mm/hr 0.09 in2.3 mm
11:10 PM 23.1°F-4.9°C 20.1°F-6.6°C 88% Calm Calm -- 30.56 in1034.9 mb 0.00 in0.0 mm 0.00 in/hr0.0 mm/hr 0.09 in2.3 mm
11:20 PM 22.8°F-5.1°C 19.7°F-6.8°C 88% Calm Calm -- 30.56 in1034.9 mb 0.00 in0.0 mm 0.00 in/hr0.0 mm/hr 0.09 in2.3 mm
11:30 PM 22.4°F-5.3°C 19.6°F-6.9°C 89% Calm Calm -- 30.56 in1034.9 mb 0.00 in0.0 mm 0.00 in/hr0.0 mm/hr 0.09 in2.3 mm
11:40 PM 22.3°F-5.4°C 19.6°F-6.9°C 89% Calm Calm -- 30.56 in1034.9 mb 0.00 in0.0 mm 0.00 in/hr0.0 mm/hr 0.09 in2.3 mm
11:50 PM 22.0°F-5.6°C 19.3°F-7.1°C 89% Calm Calm -- 30.56 in1034.9 mb 0.00 in0.0 mm 0.00 in/hr0.0 mm/hr 0.09 in2.3 mm